LYP weather

Faisalabad International Airport
Faisalabad, Punjab, Pakistan

Public forecast

Using degrees Celsius for public forecast. Weather courtesy of forecast.io.

METAR (pilot weather report)

Report is more than 6 hours old.

Retrieved 2019/05/15 17:55 UTC (4 days ago):

OPFA 151755Z 05010KT 3000 FU SCT040 BKN100 26/17 Q1009 TEMPO 31015G 35KT 1500 TSRA FEW030CB

TAF (pilot weather forecast)

Forecast is more than 12 hours old.

Retrieved 2019/05/15 18:21 UTC (4 days ago):

TAF TAF OPFA 151530Z 1518/1612 32004KT 4000 FU SCT040 SCT100 TX33/1610ZTN23/1600Z TEMPO 1522/1602 33010G25KT 1500 TSRA FEW030CB BKN040 OVC100 TEMPO 1608/1612 32010G25KT 2000 TSRA FEW030CB SCT040 BKN100